createdAt,value
2017-11-12T00:01:03.749Z,10.80
2017-11-12T00:03:30.453Z,10.50
2017-11-12T00:05:59.139Z,12.00
2017-11-12T00:08:26.089Z,12.13
2017-11-12T00:10:55.784Z,11.10
2017-11-12T00:13:22.528Z,11.95
2017-11-12T00:15:49.565Z,12.18
2017-11-12T00:18:16.839Z,11.32
2017-11-12T00:20:43.553Z,10.50
2017-11-12T00:23:10.862Z,10.90
2017-11-12T00:25:37.928Z,11.25
2017-11-12T00:28:04.627Z,11.90
2017-11-12T00:30:31.435Z,11.90
2017-11-12T00:32:58.132Z,11.82
2017-11-12T00:35:24.820Z,11.85
2017-11-12T00:37:51.531Z,12.07
2017-11-12T00:40:18.236Z,11.57
2017-11-12T00:42:44.944Z,12.05
2017-11-12T00:45:11.652Z,11.80
2017-11-12T00:47:38.344Z,10.43
2017-11-12T00:50:05.278Z,11.10
2017-11-12T00:52:32.280Z,11.02
2017-11-12T00:54:58.977Z,11.32
2017-11-12T00:57:26.524Z,12.02
2017-11-12T00:59:53.250Z,11.50
2017-11-12T01:02:20.292Z,13.23
2017-11-12T01:04:47.924Z,11.63
2017-11-12T01:07:14.655Z,11.18
2017-11-12T01:09:41.346Z,11.98
2017-11-12T01:12:08.072Z,11.38
2017-11-12T01:14:34.780Z,11.00
2017-11-12T01:17:01.473Z,10.55
2017-11-12T01:19:28.180Z,11.60
2017-11-12T01:21:55.724Z,11.20
2017-11-12T01:24:23.297Z,13.40
2017-11-12T01:26:51.733Z,12.10
2017-11-12T01:29:18.456Z,12.75
2017-11-12T01:31:45.388Z,13.75
2017-11-12T01:34:12.092Z,13.45
2017-11-12T01:36:40.012Z,14.87
2017-11-12T01:39:07.377Z,14.13
2017-11-12T01:41:35.161Z,14.25
2017-11-12T01:44:02.192Z,14.10
2017-11-12T01:46:32.973Z,13.90
2017-11-12T01:49:01.259Z,15.60
2017-11-12T01:51:28.014Z,16.65
2017-11-12T01:53:55.486Z,17.42
2017-11-12T01:56:22.206Z,15.23
2017-11-12T01:58:48.926Z,16.55
2017-11-12T02:01:16.468Z,15.60
2017-11-12T02:03:43.163Z,14.20
2017-11-12T02:06:09.897Z,15.55
2017-11-12T02:08:36.588Z,15.00
2017-11-12T02:11:03.302Z,13.88
2017-11-12T02:13:30.005Z,16.92
2017-11-12T02:15:58.663Z,16.05
2017-11-12T02:18:25.602Z,17.27
2017-11-12T02:20:53.576Z,17.58
2017-11-12T02:23:20.268Z,15.82
2017-11-12T02:25:47.236Z,16.40
2017-11-12T02:28:13.952Z,15.88
2017-11-12T02:30:40.678Z,16.60
2017-11-12T02:33:07.497Z,15.30
2017-11-12T02:35:35.195Z,16.95
2017-11-12T02:38:02.247Z,15.68
2017-11-12T02:40:28.970Z,16.05
2017-11-12T02:42:55.681Z,15.57
2017-11-12T02:45:22.786Z,16.73
2017-11-12T02:47:50.203Z,15.98
2017-11-12T02:50:16.947Z,14.95
2017-11-12T02:52:43.666Z,15.38
2017-11-12T02:55:10.655Z,16.35
2017-11-12T02:57:37.358Z,15.63
2017-11-12T03:00:04.573Z,17.27
2017-11-12T03:02:31.294Z,16.45
2017-11-12T03:04:58.453Z,15.23
2017-11-12T03:07:25.789Z,16.60
2017-11-12T03:09:53.729Z,16.40
2017-11-12T03:12:20.439Z,16.92
2017-11-12T03:14:49.977Z,16.08
2017-11-12T03:17:17.712Z,15.70
2017-11-12T03:19:44.839Z,16.25
2017-11-12T03:22:11.773Z,15.75
2017-11-12T03:24:40.131Z,15.73
2017-11-12T03:27:07.494Z,14.93
2017-11-12T03:29:35.370Z,17.00
2017-11-12T03:32:02.922Z,17.73
2017-11-12T03:34:29.613Z,16.75
2017-11-12T03:36:56.368Z,17.45
2017-11-12T03:39:23.101Z,16.77
2017-11-12T03:41:50.728Z,16.33
2017-11-12T03:44:17.438Z,17.45
2017-11-12T03:46:44.164Z,22.02
2017-11-12T03:49:12.553Z,19.33
2017-11-12T03:51:39.274Z,19.30
2017-11-12T03:54:06.685Z,19.20
2017-11-12T03:56:33.382Z,18.02
2017-11-12T03:59:01.581Z,20.15
2017-11-12T04:01:28.317Z,19.30
2017-11-12T04:03:57.213Z,18.58
2017-11-12T04:06:24.644Z,20.30
2017-11-12T04:08:52.593Z,21.85
2017-11-12T04:11:19.301Z,19.48
2017-11-12T04:13:46.424Z,19.80
2017-11-12T04:16:13.159Z,21.33
2017-11-12T04:18:39.857Z,18.85
2017-11-12T04:21:11.391Z,19.73
2017-11-12T04:23:38.401Z,19.77
2017-11-12T04:26:05.097Z,19.55
2017-11-12T04:28:31.792Z,21.15
2017-11-12T04:30:58.900Z,20.73
2017-11-12T04:33:26.566Z,20.70
2017-11-12T04:35:54.318Z,19.08
2017-11-12T04:38:21.040Z,19.60
2017-11-12T04:40:47.755Z,20.92
2017-11-12T04:43:14.498Z,21.95
2017-11-12T04:45:41.221Z,21.05
2017-11-12T04:48:07.909Z,19.50
2017-11-12T04:50:34.603Z,19.67
2017-11-12T04:53:01.333Z,22.83
2017-11-12T04:55:29.427Z,19.48
2017-11-12T04:57:56.805Z,19.08
2017-11-12T05:00:25.387Z,22.10
2017-11-12T05:02:52.332Z,21.35
2017-11-12T05:05:19.248Z,19.45
2017-11-12T05:07:46.166Z,21.58
2017-11-12T05:10:13.616Z,20.60
2017-11-12T05:12:40.325Z,20.23
2017-11-12T05:15:07.053Z,22.15
2017-11-12T05:17:33.748Z,23.40
2017-11-12T05:20:01.272Z,20.02
2017-11-12T05:22:28.491Z,21.10
2017-11-12T05:24:55.438Z,20.48
2017-11-12T05:27:22.144Z,22.87
2017-11-12T05:29:49.977Z,22.13
2017-11-12T05:32:18.365Z,22.58
2017-11-12T05:34:46.403Z,20.85
2017-11-12T05:37:13.545Z,21.12
2017-11-12T05:39:40.233Z,21.00
2017-11-12T05:42:07.156Z,22.60
2017-11-12T05:44:33.878Z,20.02
2017-11-12T05:47:01.590Z,19.60
2017-11-12T05:49:29.093Z,21.50
2017-11-12T05:51:55.845Z,19.85
2017-11-12T05:54:22.546Z,22.20
2017-11-12T05:56:49.233Z,23.70
2017-11-12T05:59:16.871Z,24.70
2017-11-12T06:01:44.908Z,21.27
2017-11-12T06:04:12.362Z,20.62
2017-11-12T06:06:40.310Z,21.65
2017-11-12T06:09:07.013Z,22.25
2017-11-12T06:11:33.722Z,21.70
2017-11-12T06:14:00.842Z,22.85
2017-11-12T06:16:27.953Z,21.33
2017-11-12T06:18:54.712Z,22.60
2017-11-12T06:21:22.114Z,20.95
2017-11-12T06:23:49.571Z,20.48
2017-11-12T06:26:16.268Z,20.62
2017-11-12T06:28:43.006Z,22.27
2017-11-12T06:31:09.705Z,21.42
2017-11-12T06:33:36.401Z,20.08
2017-11-12T06:36:03.126Z,20.85
2017-11-12T06:38:29.824Z,20.83
2017-11-12T06:40:56.511Z,19.40
2017-11-12T06:43:23.581Z,21.62
2017-11-12T06:45:51.019Z,23.38
2017-11-12T06:48:19.784Z,18.00
2017-11-12T06:50:46.767Z,18.67
2017-11-12T06:53:14.109Z,18.60
2017-11-12T06:55:40.804Z,18.15
2017-11-12T06:58:07.843Z,15.70
2017-11-12T07:00:36.022Z,15.45
2017-11-12T07:03:02.712Z,18.55
2017-11-12T07:05:29.833Z,15.73
2017-11-12T07:07:57.469Z,15.98
2017-11-12T07:10:24.187Z,14.65
2017-11-12T07:12:50.909Z,13.57
2017-11-12T07:15:17.645Z,13.98
2017-11-12T07:17:45.193Z,13.98
2017-11-12T07:20:11.926Z,14.43
2017-11-12T07:22:40.451Z,13.55
2017-11-12T07:25:07.697Z,14.25
2017-11-12T07:27:36.201Z,13.18
2017-11-12T07:30:06.180Z,11.80
2017-11-12T07:32:33.238Z,13.18
2017-11-12T07:34:59.976Z,12.75
2017-11-12T07:37:26.685Z,13.00
2017-11-12T07:39:53.390Z,12.05
2017-11-12T07:42:20.111Z,11.38
2017-11-12T07:44:47.770Z,11.57
2017-11-12T07:47:15.381Z,12.77
2017-11-12T07:49:42.100Z,10.55
2017-11-12T07:52:08.806Z,10.55
2017-11-12T07:54:37.261Z,12.45
2017-11-12T07:57:04.006Z,11.20
2017-11-12T07:59:30.702Z,11.23
2017-11-12T08:01:57.401Z,11.00
2017-11-12T08:04:24.114Z,12.07
2017-11-12T08:06:50.812Z,10.50
2017-11-12T08:09:17.722Z,11.68
2017-11-12T08:11:44.435Z,10.80
2017-11-12T08:14:11.125Z,10.90
2017-11-12T08:16:37.821Z,13.10
2017-11-12T08:19:04.541Z,13.68
2017-11-12T08:21:31.232Z,12.80
2017-11-12T08:23:57.928Z,12.60
2017-11-12T08:26:24.640Z,12.73
2017-11-12T08:28:51.330Z,12.77
2017-11-12T08:31:18.267Z,12.70
2017-11-12T08:33:44.987Z,12.43
2017-11-12T08:36:11.732Z,13.15
2017-11-12T08:38:38.432Z,14.07
2017-11-12T08:41:05.145Z,15.73
2017-11-12T08:43:31.840Z,14.05
2017-11-12T08:45:58.545Z,14.27
2017-11-12T08:48:25.317Z,14.90
2017-11-12T08:50:52.020Z,15.27
2017-11-12T08:53:18.718Z,15.48
2017-11-12T08:55:45.446Z,15.95
2017-11-12T08:58:12.147Z,16.33
2017-11-12T09:00:38.838Z,15.95
2017-11-12T09:03:05.552Z,15.93
2017-11-12T09:05:32.244Z,14.82
2017-11-12T09:07:58.936Z,15.32
2017-11-12T09:10:25.652Z,15.02
2017-11-12T09:12:52.714Z,15.70
2017-11-12T09:15:19.421Z,14.27
2017-11-12T09:17:46.148Z,13.73
2017-11-12T09:20:12.836Z,17.62
2017-11-12T09:22:39.540Z,15.30
2017-11-12T09:25:06.273Z,14.70
2017-11-12T09:27:32.961Z,18.23
2017-11-12T09:29:59.658Z,17.12
2017-11-12T09:32:26.381Z,15.90
2017-11-12T09:34:53.082Z,15.07
2017-11-12T09:37:19.782Z,14.85
2017-11-12T09:39:46.511Z,17.70
2017-11-12T09:42:13.208Z,19.25
2017-11-12T09:44:39.910Z,19.33
2017-11-12T09:47:06.968Z,18.15
2017-11-12T09:49:33.666Z,16.67
2017-11-12T09:52:00.369Z,16.80
2017-11-12T09:54:27.092Z,16.85
2017-11-12T09:56:53.782Z,14.32
2017-11-12T09:59:20.474Z,13.52
2017-11-12T10:01:47.197Z,15.27
2017-11-12T10:04:14.133Z,14.70
2017-11-12T10:06:40.824Z,15.82
2017-11-12T10:09:07.548Z,17.17
2017-11-12T10:11:34.250Z,16.10
2017-11-12T10:14:00.940Z,15.52
2017-11-12T10:16:27.662Z,13.07
2017-11-12T10:18:54.351Z,13.25
2017-11-12T10:21:21.053Z,9.50
2017-11-12T10:23:47.760Z,7.70
2017-11-12T10:26:14.445Z,6.50
2017-11-12T10:28:41.124Z,6.75
2017-11-12T10:31:07.828Z,6.30
2017-11-12T10:33:34.509Z,5.93
2017-11-12T10:36:01.751Z,6.30
2017-11-12T10:38:28.464Z,7.18
2017-11-12T10:40:55.145Z,6.90
2017-11-12T10:43:22.222Z,8.27
2017-11-12T10:45:48.933Z,7.43
2017-11-12T10:48:15.618Z,7.12
2017-11-12T10:50:42.309Z,8.23
2017-11-12T10:53:09.028Z,8.18
2017-11-12T10:55:35.712Z,8.25
2017-11-12T10:58:02.388Z,8.57
2017-11-12T11:00:29.096Z,9.18
2017-11-12T11:02:55.782Z,7.62
2017-11-12T11:05:23.168Z,7.65
2017-11-12T11:07:49.885Z,7.00
2017-11-12T11:10:16.573Z,7.25
2017-11-12T11:12:43.265Z,7.85
2017-11-12T11:15:09.980Z,8.05
2017-11-12T11:17:37.068Z,7.35
2017-11-12T11:20:03.829Z,6.03
2017-11-12T11:22:30.587Z,7.72
2017-11-12T11:24:57.276Z,6.50
2017-11-12T11:27:23.968Z,8.18
2017-11-12T11:29:50.684Z,6.90
2017-11-12T11:32:17.361Z,7.97
2017-11-12T11:34:44.083Z,8.25
2017-11-12T11:37:10.792Z,6.65
2017-11-12T11:39:37.468Z,7.62
2017-11-12T11:42:04.153Z,7.32
2017-11-12T11:44:30.864Z,7.10
2017-11-12T11:46:57.543Z,7.50
2017-11-12T11:49:24.224Z,6.70
2017-11-12T11:51:50.945Z,7.00
2017-11-12T11:54:17.625Z,5.70
2017-11-12T11:56:44.314Z,6.35
2017-11-12T11:59:11.022Z,5.50
2017-11-12T12:01:37.709Z,5.37
2017-11-12T12:04:04.396Z,6.30
2017-11-12T12:06:32.427Z,5.70
2017-11-12T12:08:59.199Z,5.37
2017-11-12T12:11:26.328Z,5.25
2017-11-12T12:13:53.045Z,4.82
2017-11-12T12:16:19.725Z,5.10
2017-11-12T12:18:46.423Z,4.30
2017-11-12T12:21:13.406Z,5.32
2017-11-12T12:23:40.095Z,5.72
2017-11-12T12:26:06.777Z,5.10
2017-11-12T12:28:33.496Z,5.37
2017-11-12T12:31:00.177Z,5.70
2017-11-12T12:33:26.857Z,6.03
2017-11-12T12:35:53.586Z,6.05
2017-11-12T12:38:20.268Z,6.20
2017-11-12T12:40:47.245Z,6.60
2017-11-12T12:43:13.948Z,6.37
2017-11-12T12:46:21.886Z,6.75
2017-11-12T12:48:48.596Z,7.47
2017-11-12T12:51:15.293Z,6.87
2017-11-12T12:53:41.992Z,7.40
2017-11-12T12:56:08.725Z,8.18
2017-11-12T12:58:35.408Z,7.75
2017-11-12T13:01:02.102Z,8.82
2017-11-12T13:03:28.823Z,19.87
2017-11-12T13:05:55.517Z,10.15
2017-11-12T13:08:22.214Z,9.68
2017-11-12T13:10:48.940Z,9.38
2017-11-12T13:13:15.857Z,9.40
2017-11-12T13:15:42.546Z,8.95
2017-11-12T13:18:09.265Z,8.93
2017-11-12T13:20:36.176Z,9.55
2017-11-12T13:23:02.862Z,9.50
2017-11-12T13:25:29.568Z,8.80
2017-11-12T13:27:56.261Z,9.10
2017-11-12T13:30:23.173Z,6.68
2017-11-12T13:32:49.888Z,7.95
2017-11-12T13:35:16.919Z,9.02
2017-11-12T13:37:43.601Z,7.80
2017-11-12T13:40:10.315Z,8.95
2017-11-12T13:42:37.000Z,9.18
2017-11-12T13:45:03.697Z,9.30
2017-11-12T13:47:30.414Z,8.75
2017-11-12T13:49:57.116Z,9.15
2017-11-12T13:52:23.808Z,8.80
2017-11-12T13:54:50.535Z,9.30
2017-11-12T13:57:17.220Z,7.75
2017-11-12T13:59:43.904Z,7.80
2017-11-12T14:02:10.625Z,8.10
2017-11-12T14:04:37.305Z,8.18
2017-11-12T14:07:03.987Z,9.18
2017-11-12T14:09:30.711Z,13.77
2017-11-12T14:11:57.416Z,14.68
2017-11-12T14:14:24.104Z,14.87
2017-11-12T14:16:51.363Z,14.20
2017-11-12T14:19:18.052Z,10.93
2017-11-12T14:21:44.765Z,10.27
2017-11-12T14:24:11.494Z,9.98
2017-11-12T14:26:38.190Z,10.10
2017-11-12T14:29:04.884Z,10.70
2017-11-12T14:31:31.610Z,11.25
2017-11-12T14:33:58.309Z,11.57
2017-11-12T14:36:24.997Z,12.15
2017-11-12T14:38:51.712Z,12.00
2017-11-12T14:41:18.404Z,12.57
2017-11-12T14:43:45.100Z,12.80
2017-11-12T14:46:11.829Z,12.02
2017-11-12T14:48:38.521Z,14.25
2017-11-12T14:51:05.590Z,14.30
2017-11-12T14:53:32.552Z,13.20
2017-11-12T14:55:59.261Z,13.38
2017-11-12T14:58:25.953Z,13.05
2017-11-12T15:00:53.403Z,14.68
2017-11-12T15:03:20.102Z,14.23
2017-11-12T15:05:47.172Z,12.88
2017-11-12T15:08:13.892Z,13.88
2017-11-12T15:10:40.579Z,13.10
2017-11-12T15:13:07.273Z,12.50
2017-11-12T15:15:34.000Z,15.15
2017-11-12T15:18:00.702Z,14.05
2017-11-12T15:20:27.393Z,15.32
2017-11-12T15:22:54.111Z,15.32
2017-11-12T15:25:20.799Z,15.65
2017-11-12T15:27:47.495Z,14.95
2017-11-12T15:30:14.216Z,16.95
2017-11-12T15:32:40.930Z,15.50
2017-11-12T15:35:07.614Z,16.35
2017-11-12T15:37:34.565Z,16.02
2017-11-12T15:40:01.273Z,17.10
2017-11-12T15:42:27.972Z,15.55
2017-11-12T15:44:54.696Z,16.42
2017-11-12T15:47:21.669Z,17.00
2017-11-12T15:49:48.714Z,17.67
2017-11-12T15:52:15.439Z,15.23
2017-11-12T15:54:42.120Z,14.07
2017-11-12T15:57:08.813Z,14.93
2017-11-12T15:59:35.530Z,15.32
2017-11-12T16:02:02.230Z,16.25
2017-11-12T16:04:28.922Z,16.05
2017-11-12T16:06:55.645Z,14.93
2017-11-12T16:09:22.333Z,15.75
2017-11-12T16:11:49.026Z,15.63
2017-11-12T16:14:15.999Z,14.52
2017-11-12T16:16:42.681Z,14.32
2017-11-12T16:19:10.997Z,14.98
2017-11-12T16:21:37.721Z,17.35
2017-11-12T16:24:04.409Z,15.98
2017-11-12T16:26:31.100Z,14.65
2017-11-12T16:28:57.820Z,13.50
2017-11-12T16:31:26.152Z,11.88
2017-11-12T16:33:52.836Z,10.52
2017-11-12T16:36:19.561Z,11.15
2017-11-12T16:38:46.502Z,12.75
2017-11-12T16:41:13.198Z,11.50
2017-11-12T16:43:39.908Z,11.60
2017-11-12T16:46:06.605Z,12.30
2017-11-12T16:48:33.305Z,13.23
2017-11-12T16:51:00.028Z,13.57
2017-11-12T16:53:26.718Z,12.93
2017-11-12T16:55:53.424Z,13.15
2017-11-12T16:58:20.149Z,12.70
2017-11-12T17:00:46.844Z,13.23
2017-11-12T17:03:13.536Z,10.18
2017-11-12T17:05:40.260Z,11.20
2017-11-12T17:08:06.950Z,8.90
2017-11-12T17:10:33.637Z,9.68
2017-11-12T17:13:00.353Z,11.35
2017-11-12T17:15:27.048Z,10.63
2017-11-12T17:17:53.747Z,11.27
2017-11-12T17:20:20.473Z,10.13
2017-11-12T17:22:47.162Z,10.90
2017-11-12T17:25:13.844Z,10.38
2017-11-12T17:27:40.566Z,11.15
2017-11-12T17:30:07.253Z,11.45
2017-11-12T17:32:33.936Z,12.52
2017-11-12T17:35:00.930Z,11.98
2017-11-12T17:37:27.624Z,11.63
2017-11-12T17:39:54.324Z,12.80
2017-11-12T17:42:21.052Z,13.15
2017-11-12T17:44:47.756Z,11.32
2017-11-12T17:47:14.489Z,11.32
2017-11-12T17:49:41.180Z,14.32
2017-11-12T17:52:08.020Z,13.73
2017-11-12T17:54:34.715Z,14.85
2017-11-12T17:57:01.441Z,12.57
2017-11-12T17:59:28.136Z,13.52
2017-11-12T18:01:54.853Z,15.48
2017-11-12T18:04:21.557Z,13.00
2017-11-12T18:06:48.281Z,14.68
2017-11-12T18:09:15.415Z,14.23
2017-11-12T18:11:42.745Z,12.88
2017-11-12T18:14:10.293Z,14.63
2017-11-12T18:16:37.249Z,12.27
2017-11-12T18:19:03.948Z,14.82
2017-11-12T18:21:31.604Z,13.57
2017-11-12T18:23:58.329Z,12.35
2017-11-12T18:26:25.057Z,12.95
2017-11-12T18:28:52.828Z,13.73
2017-11-12T18:31:22.488Z,12.77
2017-11-12T18:33:51.201Z,13.00
2017-11-12T18:36:18.859Z,11.40
2017-11-12T18:38:46.658Z,11.32
2017-11-12T18:41:15.799Z,11.35
2017-11-12T18:43:43.519Z,10.80
2017-11-12T18:46:10.298Z,11.65
2017-11-12T18:48:37.890Z,11.27
2017-11-12T18:51:04.654Z,13.45
2017-11-12T18:53:33.138Z,10.98
2017-11-12T18:56:00.782Z,12.15
2017-11-12T18:58:31.216Z,12.90
2017-11-12T19:01:03.646Z,12.63
2017-11-12T19:03:37.061Z,12.80
2017-11-12T19:06:09.806Z,11.23
2017-11-12T19:08:41.100Z,10.52
2017-11-12T19:11:08.152Z,11.93
2017-11-12T19:13:35.607Z,10.35
2017-11-12T19:16:02.307Z,10.25
2017-11-12T19:18:46.866Z,10.05
2017-11-12T19:21:31.331Z,11.23
2017-11-12T19:24:05.336Z,10.65
2017-11-12T19:26:35.053Z,10.82
2017-11-12T19:29:03.601Z,10.65
2017-11-12T19:31:31.227Z,10.65
2017-11-12T19:33:57.940Z,11.55
2017-11-12T19:36:24.642Z,10.35
2017-11-12T19:38:51.372Z,11.25
2017-11-12T19:41:18.293Z,11.27
2017-11-12T19:43:45.696Z,11.40
2017-11-12T19:48:44.282Z,9.52
2017-11-12T19:51:11.781Z,10.00
2017-11-12T19:53:39.438Z,10.60
2017-11-12T19:56:07.008Z,10.02
2017-11-12T19:58:35.761Z,7.95
2017-11-12T20:01:03.145Z,8.25
2017-11-12T20:03:29.877Z,9.18
2017-11-12T20:05:56.565Z,8.43
2017-11-12T20:08:23.244Z,8.73
2017-11-12T20:10:50.386Z,8.38
2017-11-12T20:13:19.139Z,8.00
2017-11-12T20:15:45.837Z,7.60
2017-11-12T20:18:13.201Z,8.45
2017-11-12T20:20:39.884Z,6.97
2017-11-12T20:23:06.606Z,7.70
2017-11-12T20:25:33.324Z,6.12
2017-11-12T20:28:00.021Z,6.40
2017-11-12T20:30:27.644Z,6.95
2017-11-12T20:32:55.046Z,6.10
2017-11-12T20:35:22.921Z,6.28
2017-11-12T20:37:50.603Z,6.72
2017-11-12T20:40:17.945Z,6.90
2017-11-12T20:42:44.623Z,7.53
2017-11-12T20:45:11.693Z,6.50
2017-11-12T20:47:38.408Z,7.50
2017-11-12T20:50:05.197Z,5.95
2017-11-12T20:52:31.894Z,6.05
2017-11-12T20:55:02.577Z,6.45
2017-11-12T20:57:30.441Z,5.47
2017-11-12T20:59:57.133Z,5.40
2017-11-12T21:02:23.862Z,6.37
2017-11-12T21:04:51.950Z,6.07
2017-11-12T21:07:19.507Z,7.35
2017-11-12T21:09:46.606Z,6.55
2017-11-12T21:12:13.304Z,7.05
2017-11-12T21:14:40.005Z,6.53
2017-11-12T21:17:06.717Z,6.18
2017-11-12T21:19:34.416Z,7.00
2017-11-12T21:22:17.019Z,6.57
2017-11-12T21:24:43.716Z,6.57
2017-11-12T21:27:16.162Z,6.68
2017-11-12T21:29:45.847Z,7.00
2017-11-12T21:32:19.441Z,7.05
2017-11-12T21:35:02.232Z,7.80
2017-11-12T21:37:34.039Z,14.95
2017-11-12T21:40:00.738Z,7.43
2017-11-12T21:42:27.711Z,8.10
2017-11-12T21:44:54.625Z,8.00
2017-11-12T21:47:21.317Z,8.30
2017-11-12T21:49:48.032Z,8.65
2017-11-12T21:52:15.840Z,7.20
2017-11-12T21:54:42.555Z,8.32
2017-11-12T21:57:09.263Z,7.68
2017-11-12T21:59:36.723Z,8.63
2017-11-12T22:02:03.727Z,9.10
2017-11-12T22:04:31.255Z,9.30
2017-11-12T22:06:58.192Z,9.18
2017-11-12T22:09:24.953Z,8.85
2017-11-12T22:11:51.679Z,9.93
2017-11-12T22:14:20.337Z,9.65
2017-11-12T22:16:47.081Z,9.85
2017-11-12T22:19:13.781Z,8.35
2017-11-12T22:21:41.310Z,8.45
2017-11-12T22:24:08.816Z,9.07
2017-11-12T22:26:35.775Z,7.22
2017-11-12T22:29:02.729Z,7.30
2017-11-12T22:31:30.696Z,8.48
2017-11-12T22:33:57.399Z,8.27
2017-11-12T22:36:24.107Z,21.98
2017-11-12T22:38:51.494Z,8.20
2017-11-12T22:41:19.045Z,9.45
2017-11-12T22:43:45.734Z,9.43
2017-11-12T22:46:12.453Z,8.23
2017-11-12T22:48:39.144Z,7.62
2017-11-12T22:51:07.055Z,7.70
2017-11-12T22:53:33.791Z,8.23
2017-11-12T22:56:00.479Z,8.57
2017-11-12T22:58:27.166Z,7.80
2017-11-12T23:00:58.697Z,7.43
2017-11-12T23:03:25.393Z,8.48
2017-11-12T23:05:52.912Z,8.60
2017-11-12T23:08:19.628Z,6.90
2017-11-12T23:10:46.307Z,7.80
2017-11-12T23:13:12.993Z,9.35
2017-11-12T23:15:39.721Z,11.25
2017-11-12T23:18:06.645Z,10.25
2017-11-12T23:20:33.337Z,6.68
2017-11-12T23:23:00.406Z,6.43
2017-11-12T23:25:27.130Z,6.70
2017-11-12T23:27:53.892Z,6.65
2017-11-12T23:30:20.615Z,6.25
2017-11-12T23:32:47.329Z,6.40
2017-11-12T23:35:14.021Z,6.60
2017-11-12T23:37:41.560Z,6.00
2017-11-12T23:40:08.252Z,5.55
2017-11-12T23:42:35.914Z,6.65
2017-11-12T23:45:03.778Z,6.07
2017-11-12T23:47:30.473Z,19.30
2017-11-12T23:49:57.157Z,11.23
2017-11-12T23:52:24.469Z,6.68
2017-11-12T23:54:51.173Z,6.72
2017-11-12T23:57:17.852Z,5.95
2017-11-12T23:59:44.558Z,5.47
